Time;durP1;ratioP1;P1;durP2;ratioP2;P2;SDS_P1;SDS_P2;PMS_P1;PMS_P2;Temp;Humidity;BMP_temperature;BMP_pressure;BME280_temperature;BME280_humidity;BME280_pressure;Samples;Min_cycle;Max_cycle;Signal;HPM_P1;HPM_P2
2022/03/01 00:02:12;;;;;;;16.05;9.25;;;2.80;99.90;;;;;;5076656;28;20051;-84
2022/03/01 00:04:38;;;;;;;15.13;8.82;;;2.80;99.90;;;;;;5054370;28;20101;-84
2022/03/01 00:07:04;;;;;;;15.43;8.93;;;2.70;99.90;;;;;;5058275;28;20417;-83
2022/03/01 00:09:30;;;;;;;16.83;9.60;;;2.70;99.90;;;;;;5074813;28;20039;-84
2022/03/01 00:11:56;;;;;;;17.95;9.32;;;2.70;99.90;;;;;;5045254;28;20101;-84
2022/03/01 00:14:22;;;;;;;16.02;9.05;;;2.70;99.90;;;;;;5083997;28;20087;-84
2022/03/01 00:16:48;;;;;;;17.52;10.05;;;2.60;99.90;;;;;;5067390;28;20072;-84
2022/03/01 00:19:13;;;;;;;19.27;9.70;;;4.00;99.90;;;;;;5057374;28;20032;-84
2022/03/01 00:21:39;;;;;;;16.30;8.95;;;2.60;99.90;;;;;;5041898;28;20063;-83
2022/03/01 00:24:05;;;;;;;16.40;9.25;;;2.80;99.90;;;;;;5079262;28;20134;-83
2022/03/01 00:26:31;;;;;;;17.35;9.65;;;2.90;99.90;;;;;;5075754;28;20036;-84
2022/03/01 00:28:56;;;;;;;15.57;9.07;;;4.10;99.90;;;;;;5068398;28;20373;-83
2022/03/01 00:31:22;;;;;;;17.20;9.30;;;2.50;99.90;;;;;;5060409;28;20048;-83
2022/03/01 00:33:48;;;;;;;16.63;9.57;;;2.50;99.90;;;;;;5065553;28;20128;-83
2022/03/01 00:36:13;;;;;;;17.05;9.40;;;2.50;99.90;;;;;;5080323;28;20119;-83
2022/03/01 00:38:39;;;;;;;16.23;9.15;;;2.50;99.90;;;;;;5077764;28;20036;-84
2022/03/01 00:41:05;;;;;;;16.85;9.73;;;4.20;99.90;;;;;;5073241;28;20041;-83
2022/03/01 00:43:31;;;;;;;15.77;8.75;;;2.50;99.90;;;;;;5063178;28;20443;-84
2022/03/01 00:45:57;;;;;;;18.38;9.45;;;2.40;99.90;;;;;;5065776;28;20044;-84
2022/03/01 00:48:23;;;;;;;17.58;9.50;;;2.40;99.90;;;;;;5048419;28;20388;-83
2022/03/01 00:50:48;;;;;;;17.33;9.35;;;2.40;99.90;;;;;;5044002;28;20036;-84
2022/03/01 00:53:14;;;;;;;15.60;8.95;;;2.30;99.90;;;;;;5079517;28;20036;-84
2022/03/01 00:55:40;;;;;;;16.08;9.23;;;2.40;99.90;;;;;;5067015;28;20074;-83
2022/03/01 00:58:06;;;;;;;15.38;8.95;;;2.30;99.90;;;;;;5069116;28;20043;-83
2022/03/01 01:00:33;;;;;;;15.57;9.30;;;2.30;99.90;;;;;;5063755;28;20090;-83
2022/03/01 01:03:00;;;;;;;16.30;9.30;;;3.70;99.90;;;;;;5080273;28;20124;-84
2022/03/01 01:05:26;;;;;;;16.45;9.65;;;2.20;99.90;;;;;;5058473;28;20640;-83
2022/03/01 01:07:52;;;;;;;16.73;8.70;;;2.20;99.90;;;;;;5076487;28;20397;-84
2022/03/01 01:10:18;;;;;;;15.70;9.05;;;2.20;99.90;;;;;;5060271;28;20109;-83
2022/03/01 01:12:44;;;;;;;16.15;9.88;;;2.20;99.90;;;;;;5076953;28;20046;-83
2022/03/01 01:15:14;;;;;;;16.98;9.43;;;2.20;99.90;;;;;;5067575;28;20047;-83
2022/03/01 01:17:40;;;;;;;15.27;8.52;;;2.20;99.90;;;;;;5063248;28;20082;-83
2022/03/01 01:20:07;;;;;;;16.25;9.50;;;2.10;99.90;;;;;;5057862;28;20039;-83
2022/03/01 01:22:42;;;;;;;17.00;9.32;;;2.10;99.90;;;;;;5060986;28;20203;-83
2022/03/01 01:25:13;;;;;;;17.30;9.48;;;2.10;99.90;;;;;;5079609;28;20074;-83
2022/03/01 01:27:41;;;;;;;16.60;8.73;;;2.10;99.90;;;;;;5075375;28;20043;-83
2022/03/01 01:30:10;;;;;;;16.20;9.18;;;2.10;99.90;;;;;;5082590;28;20044;-84
2022/03/01 01:32:36;;;;;;;18.65;10.23;;;2.10;99.90;;;;;;5071571;28;20039;-84
2022/03/01 01:35:03;;;;;;;17.23;9.60;;;2.10;99.90;;;;;;5061702;28;20040;-84
2022/03/01 01:37:29;;;;;;;17.52;9.50;;;2.10;99.90;;;;;;5065106;28;20111;-83
2022/03/01 01:39:55;;;;;;;17.55;9.93;;;3.50;99.90;;;;;;5060646;28;20032;-83
2022/03/01 01:42:20;;;;;;;17.10;9.43;;;2.00;99.90;;;;;;5034915;28;20707;-83
2022/03/01 01:44:46;;;;;;;18.92;9.63;;;2.00;99.90;;;;;;5083159;28;20085;-83
2022/03/01 01:47:12;;;;;;;16.02;9.52;;;2.00;99.90;;;;;;5050706;28;20474;-83
2022/03/01 01:49:38;;;;;;;16.55;9.65;;;2.00;99.90;;;;;;5057250;28;20036;-83
2022/03/01 01:52:04;;;;;;;16.33;9.80;;;1.90;99.90;;;;;;5027582;28;20120;-83
2022/03/01 01:54:30;;;;;;;17.15;9.27;;;1.90;99.90;;;;;;5081377;28;20524;-83
2022/03/01 01:56:55;;;;;;;16.65;9.27;;;1.90;99.90;;;;;;5079356;28;20036;-83
2022/03/01 01:59:21;;;;;;;15.63;9.05;;;3.10;99.90;;;;;;5061419;28;20047;-83
2022/03/01 02:01:47;;;;;;;16.55;9.55;;;1.90;99.90;;;;;;5059620;28;20124;-84
2022/03/01 02:04:12;;;;;;;15.90;9.05;;;1.90;99.90;;;;;;5074880;28;20162;-83
2022/03/01 02:06:53;;;;;;;15.98;9.07;;;2.80;99.90;;;;;;5026018;28;20067;-84
2022/03/01 02:09:19;;;;;;;17.13;10.00;;;2.00;99.90;;;;;;5077131;28;20048;-83
2022/03/01 02:11:44;;;;;;;18.75;9.75;;;2.00;99.90;;;;;;5075026;28;20143;-84
2022/03/01 02:14:11;;;;;;;17.38;9.73;;;2.00;99.90;;;;;;5076779;28;20124;-83
2022/03/01 02:16:37;;;;;;;16.85;9.95;;;1.90;99.90;;;;;;5066655;28;20071;-83
2022/03/01 02:19:10;;;;;;;17.45;9.07;;;1.90;99.90;;;;;;5061068;28;20405;-83
2022/03/01 02:21:36;;;;;;;17.13;9.35;;;1.90;99.90;;;;;;5068200;28;20065;-84
2022/03/01 02:24:02;;;;;;;15.98;9.32;;;1.90;99.90;;;;;;5058257;28;20108;-83
2022/03/01 02:26:27;;;;;;;16.38;9.63;;;2.30;99.90;;;;;;5059252;28;20043;-83
2022/03/01 02:28:53;;;;;;;17.60;9.43;;;1.90;99.90;;;;;;5062543;28;20401;-83
2022/03/01 02:31:19;;;;;;;17.45;9.30;;;2.30;99.90;;;;;;5069610;28;20093;-83
2022/03/01 02:33:44;;;;;;;17.77;9.63;;;1.90;99.90;;;;;;5058860;28;20568;-84
2022/03/01 02:36:10;;;;;;;17.20;9.27;;;1.80;99.90;;;;;;5069107;28;20071;-84
2022/03/01 02:38:35;;;;;;;17.42;9.38;;;1.90;99.90;;;;;;5036691;28;20397;-83
2022/03/01 02:41:01;;;;;;;19.77;10.30;;;3.20;99.90;;;;;;5068965;28;20175;-84
2022/03/01 02:43:27;;;;;;;17.90;9.43;;;0.50;99.90;;;;;;5058000;28;20041;-83
2022/03/01 02:45:52;;;;;;;19.02;9.82;;;3.70;99.90;;;;;;5064156;28;20385;-83
2022/03/01 02:48:18;;;;;;;16.55;9.48;;;3.40;99.90;;;;;;5046256;28;20036;-83
2022/03/01 02:50:44;;;;;;;17.85;10.18;;;1.80;99.90;;;;;;5059085;28;20473;-83
2022/03/01 02:53:09;;;;;;;16.27;9.40;;;2.20;99.90;;;;;;5081137;28;20048;-83
2022/03/01 02:55:35;;;;;;;18.08;9.27;;;3.30;99.90;;;;;;5030232;28;20048;-83
2022/03/01 02:58:01;;;;;;;17.92;9.85;;;1.90;99.90;;;;;;5059599;28;20037;-82
2022/03/01 03:00:27;;;;;;;16.33;9.20;;;1.80;99.90;;;;;;5068914;28;20435;-82
2022/03/01 03:02:53;;;;;;;17.15;10.02;;;3.10;99.90;;;;;;5023671;28;20043;-82
2022/03/01 03:05:19;;;;;;;17.38;9.48;;;1.80;99.90;;;;;;5063467;28;20110;-82
2022/03/01 03:07:45;;;;;;;16.75;9.02;;;3.20;99.90;;;;;;5062926;28;20564;-83
2022/03/01 03:10:11;;;;;;;20.45;9.88;;;1.80;99.90;;;;;;5060310;28;20051;-82
2022/03/01 03:12:37;;;;;;;17.75;10.25;;;1.70;99.90;;;;;;5063956;28;20122;-82
2022/03/01 03:15:04;;;;;;;18.70;10.10;;;1.70;99.90;;;;;;5075664;28;20045;-82
2022/03/01 03:17:31;;;;;;;18.17;9.98;;;1.70;99.90;;;;;;5076569;28;20073;-82
2022/03/01 03:19:57;;;;;;;17.27;9.90;;;1.70;99.90;;;;;;5079014;28;21647;-83
2022/03/01 03:22:22;;;;;;;17.90;9.48;;;2.60;99.90;;;;;;5071114;28;20047;-83
2022/03/01 03:24:48;;;;;;;17.05;10.25;;;1.70;99.90;;;;;;5067549;28;20032;-83
2022/03/01 03:27:14;;;;;;;19.85;10.05;;;1.70;99.90;;;;;;5077922;28;20036;-82
2022/03/01 03:29:40;;;;;;;16.83;9.85;;;1.70;99.90;;;;;;5059233;28;20123;-82
2022/03/01 03:32:07;;;;;;;18.55;10.10;;;1.70;99.90;;;;;;5076946;28;20123;-82
2022/03/01 03:34:33;;;;;;;17.25;9.82;;;1.70;99.90;;;;;;5062182;28;20048;-83
2022/03/01 03:36:59;;;;;;;18.05;10.25;;;1.70;99.90;;;;;;5063891;28;20051;-82
2022/03/01 03:39:24;;;;;;;17.35;9.75;;;3.50;99.90;;;;;;5055579;28;20107;-82
2022/03/01 03:41:50;;;;;;;17.38;9.82;;;1.80;99.90;;;;;;5047868;28;20636;-83
2022/03/01 03:44:16;;;;;;;17.30;9.93;;;1.80;99.90;;;;;;5069702;28;20044;-83
2022/03/01 03:46:41;;;;;;;17.02;9.70;;;2.70;99.90;;;;;;5069558;28;20551;-82
2022/03/01 03:49:07;;;;;;;20.48;10.77;;;1.80;99.90;;;;;;5067993;28;20086;-82
2022/03/01 03:51:33;;;;;;;18.25;9.98;;;1.90;99.90;;;;;;5066680;28;20040;-84
2022/03/01 03:53:59;;;;;;;18.48;10.32;;;1.90;99.90;;;;;;5073195;28;20039;-82
2022/03/01 03:56:24;;;;;;;18.10;10.05;;;1.90;99.90;;;;;;5069314;28;20032;-82
2022/03/01 03:58:50;;;;;;;16.50;9.25;;;1.90;99.90;;;;;;5066653;28;20045;-82
2022/03/01 04:01:16;;;;;;;17.23;10.00;;;1.90;99.90;;;;;;5082084;28;20053;-83
2022/03/01 04:03:42;;;;;;;17.77;9.57;;;1.90;99.90;;;;;;5085011;28;20028;-82
2022/03/01 04:06:08;;;;;;;18.00;9.40;;;1.90;99.90;;;;;;5065480;28;20123;-83
2022/03/01 04:08:34;;;;;;;18.70;10.60;;;1.90;99.90;;;;;;5061840;28;20043;-83
2022/03/01 04:11:00;;;;;;;17.60;10.52;;;1.90;99.90;;;;;;5076603;28;20037;-83
2022/03/01 04:13:26;;;;;;;16.60;9.95;;;1.90;99.90;;;;;;5061964;28;20556;-83
2022/03/01 04:15:52;;;;;;;18.45;10.40;;;1.90;99.90;;;;;;5080548;28;20582;-82
2022/03/01 04:18:18;;;;;;;17.95;10.25;;;1.90;99.90;;;;;;5059848;28;20051;-82
2022/03/01 04:20:44;;;;;;;17.35;9.77;;;1.00;99.90;;;;;;5066793;28;20119;-83
2022/03/01 04:23:10;;;;;;;18.98;10.57;;;2.30;99.90;;;;;;5072369;28;20035;-82
2022/03/01 04:25:36;;;;;;;20.58;10.60;;;1.90;99.90;;;;;;5080483;28;20064;-82
2022/03/01 04:28:02;;;;;;;18.67;10.25;;;1.90;99.90;;;;;;5070718;28;20121;-83
2022/03/01 04:30:28;;;;;;;18.33;10.30;;;1.90;99.90;;;;;;5060504;28;20131;-82
2022/03/01 04:32:54;;;;;;;18.50;10.55;;;3.90;99.90;;;;;;5062946;28;20111;-84
2022/03/01 04:35:20;;;;;;;19.25;10.35;;;1.90;99.90;;;;;;5066333;28;20051;-82
2022/03/01 04:37:46;;;;;;;18.23;9.98;;;3.20;99.90;;;;;;5065761;28;20039;-83
2022/03/01 04:40:14;;;;;;;18.42;10.55;;;3.20;99.90;;;;;;5083487;28;20043;-82
2022/03/01 04:42:40;;;;;;;16.42;9.95;;;1.90;99.90;;;;;;5086063;28;20036;-83
2022/03/01 04:45:07;;;;;;;20.45;11.23;;;3.40;99.90;;;;;;5064915;28;20028;-82
2022/03/01 04:47:33;;;;;;;17.98;10.50;;;1.90;99.90;;;;;;5081177;28;20036;-82
2022/03/01 04:49:59;;;;;;;16.90;9.77;;;1.90;99.90;;;;;;5076912;28;20050;-82
2022/03/01 04:52:25;;;;;;;16.63;9.80;;;1.90;99.90;;;;;;5066195;28;20450;-83
2022/03/01 04:54:51;;;;;;;18.65;10.07;;;1.90;99.90;;;;;;5081751;28;20038;-83
2022/03/01 04:57:17;;;;;;;17.13;9.70;;;1.90;99.90;;;;;;5060774;28;20115;-83
2022/03/01 04:59:44;;;;;;;18.02;10.05;;;1.90;99.90;;;;;;5063926;28;20105;-82
2022/03/01 05:02:09;;;;;;;17.83;10.43;;;1.90;99.90;;;;;;5066613;28;20089;-83
2022/03/01 05:04:35;;;;;;;18.95;10.55;;;3.30;99.90;;;;;;5062593;28;20037;-82
2022/03/01 05:07:01;;;;;;;18.70;10.27;;;2.60;99.90;;;;;;5064280;28;20109;-82
2022/03/01 05:09:27;;;;;;;18.90;10.50;;;2.90;99.90;;;;;;5058267;28;20609;-83
2022/03/01 05:11:53;;;;;;;18.92;10.27;;;3.40;99.90;;;;;;5058665;28;20042;-82
2022/03/01 05:14:19;;;;;;;19.83;10.45;;;3.50;99.90;;;;;;5060538;28;20803;-82
2022/03/01 05:16:45;;;;;;;18.80;10.75;;;1.90;99.90;;;;;;5082729;28;20048;-82
2022/03/01 05:19:15;;;;;;;17.88;10.55;;;1.90;99.90;;;;;;5065536;28;20114;-82
2022/03/01 05:21:41;;;;;;;17.33;9.80;;;1.90;99.90;;;;;;5080235;28;20662;-83
2022/03/01 05:24:07;;;;;;;18.17;10.35;;;1.90;99.90;;;;;;5074728;28;20043;-83
2022/03/01 05:26:33;;;;;;;18.90;10.70;;;1.90;99.90;;;;;;5076598;28;20408;-83
2022/03/01 05:28:59;;;;;;;18.30;10.65;;;1.90;99.90;;;;;;5057237;28;20029;-82
2022/03/01 05:31:27;;;;;;;18.67;10.77;;;2.50;99.90;;;;;;5083537;28;20040;-82
2022/03/01 05:33:53;;;;;;;18.13;10.18;;;2.00;99.90;;;;;;5075492;28;20091;-82
2022/03/01 05:36:19;;;;;;;17.85;10.65;;;2.00;99.90;;;;;;5056195;28;21422;-82
2022/03/01 05:38:45;;;;;;;17.40;9.88;;;2.60;99.90;;;;;;5082179;28;20397;-82
2022/03/01 05:41:11;;;;;;;21.02;10.75;;;2.00;99.90;;;;;;5040103;28;20036;-83
2022/03/01 05:43:38;;;;;;;19.40;10.10;;;2.10;99.90;;;;;;5080910;28;20036;-82
2022/03/01 05:46:07;;;;;;;18.83;10.85;;;2.80;99.90;;;;;;5061022;28;20040;-83
2022/03/01 05:48:33;;;;;;;18.85;10.60;;;3.70;99.90;;;;;;5074343;28;20464;-82
2022/03/01 05:51:01;;;;;;;18.52;10.18;;;2.00;99.90;;;;;;5064179;28;20135;-82
2022/03/01 05:53:26;;;;;;;17.90;10.73;;;2.50;99.90;;;;;;5064103;28;20081;-83
2022/03/01 05:55:52;;;;;;;19.52;10.52;;;2.00;99.90;;;;;;5067721;28;20028;-83
2022/03/01 05:58:18;;;;;;;21.92;10.73;;;3.20;99.90;;;;;;5085464;28;20032;-83
2022/03/01 06:00:43;;;;;;;17.58;9.68;;;2.00;99.90;;;;;;5083056;28;20463;-83
2022/03/01 06:03:09;;;;;;;19.92;10.98;;;3.10;99.90;;;;;;5064993;28;20668;-83
2022/03/01 06:05:38;;;;;;;18.02;10.20;;;3.20;99.90;;;;;;5078459;28;20047;-83
2022/03/01 06:08:04;;;;;;;19.00;10.52;;;2.00;99.90;;;;;;5068359;28;20275;-82
2022/03/01 06:10:30;;;;;;;19.17;10.60;;;2.00;99.90;;;;;;5054510;28;20678;-82
2022/03/01 06:12:55;;;;;;;19.13;10.45;;;3.10;99.90;;;;;;5073630;28;20115;-83
2022/03/01 06:15:21;;;;;;;19.42;9.90;;;2.00;99.90;;;;;;5061966;28;20062;-82
2022/03/01 06:17:48;;;;;;;19.48;10.52;;;2.00;99.90;;;;;;5081656;28;20028;-82
2022/03/01 06:20:14;;;;;;;17.83;10.15;;;2.00;99.90;;;;;;5079335;28;20039;-83
2022/03/01 06:22:41;;;;;;;18.05;10.32;;;2.90;99.90;;;;;;5076131;28;20028;-83
2022/03/01 06:25:08;;;;;;;17.58;10.25;;;2.10;99.90;;;;;;5074684;28;20401;-83
2022/03/01 06:27:35;;;;;;;18.98;10.52;;;2.10;99.90;;;;;;5074142;28;20123;-83
2022/03/01 06:30:01;;;;;;;19.80;10.73;;;2.10;99.90;;;;;;5077398;28;20036;-83
2022/03/01 06:32:27;;;;;;;19.83;10.90;;;3.30;99.90;;;;;;5062641;28;20045;-83
2022/03/01 06:34:52;;;;;;;19.27;10.68;;;2.30;99.90;;;;;;5066639;28;20043;-82
2022/03/01 06:37:18;;;;;;;18.33;10.80;;;2.10;99.90;;;;;;5039441;28;20161;-82
2022/03/01 06:39:45;;;;;;;19.98;10.55;;;2.10;99.90;;;;;;5078241;28;20106;-82
2022/03/01 06:42:12;;;;;;;17.65;10.65;;;2.10;99.90;;;;;;5072378;28;20652;-83
2022/03/01 06:44:38;;;;;;;19.88;10.90;;;2.10;99.90;;;;;;5077289;28;20040;-83
2022/03/01 06:47:05;;;;;;;18.10;10.73;;;2.30;99.90;;;;;;5078452;28;20492;-83
2022/03/01 06:49:31;;;;;;;19.42;10.52;;;2.20;99.90;;;;;;5076986;28;20555;-82
2022/03/01 06:51:57;;;;;;;18.10;11.10;;;2.20;99.90;;;;;;5060036;28;20088;-83
2022/03/01 06:54:23;;;;;;;20.40;11.23;;;2.60;99.90;;;;;;5084389;28;20093;-82
2022/03/01 06:56:49;;;;;;;18.67;10.90;;;2.80;99.90;;;;;;5057968;28;20084;-83
2022/03/01 06:59:15;;;;;;;18.83;10.63;;;2.20;99.90;;;;;;5060006;28;20042;-83
2022/03/01 07:01:41;;;;;;;19.63;11.27;;;2.20;99.90;;;;;;5059674;28;20032;-83
2022/03/01 07:04:07;;;;;;;19.20;10.95;;;2.30;99.90;;;;;;5060938;28;20063;-83
2022/03/01 07:06:33;;;;;;;18.88;10.73;;;2.30;99.90;;;;;;5066067;28;20053;-83
2022/03/01 07:08:59;;;;;;;21.33;10.75;;;2.40;99.90;;;;;;5071724;28;20761;-82
2022/03/01 07:11:25;;;;;;;19.90;11.00;;;2.80;99.90;;;;;;5060306;28;20071;-83
2022/03/01 07:13:51;;;;;;;20.08;11.15;;;2.50;99.90;;;;;;5079445;28;20087;-84
2022/03/01 07:16:17;;;;;;;21.65;11.27;;;2.40;99.90;;;;;;5078305;28;20088;-82
2022/03/01 07:18:43;;;;;;;21.42;11.68;;;2.70;99.90;;;;;;5058464;28;20079;-83
2022/03/01 07:21:09;;;;;;;23.52;12.27;;;2.50;99.90;;;;;;5084389;28;20091;-83
2022/03/01 07:23:35;;;;;;;19.70;11.25;;;2.50;99.90;;;;;;5106551;28;20068;-83
2022/03/01 07:26:04;;;;;;;20.42;11.50;;;2.60;99.90;;;;;;5076094;28;20064;-83
2022/03/01 07:28:30;;;;;;;19.85;11.82;;;2.60;99.90;;;;;;5080273;28;20085;-83
2022/03/01 07:30:57;;;;;;;21.35;12.25;;;2.70;99.90;;;;;;5063828;28;20063;-82
2022/03/01 07:33:23;;;;;;;19.60;11.45;;;2.70;99.90;;;;;;5061213;28;20075;-84
2022/03/01 07:35:49;;;;;;;20.85;11.88;;;3.40;99.90;;;;;;5067816;28;20044;-83
2022/03/01 07:38:15;;;;;;;19.05;11.32;;;2.80;99.90;;;;;;5073334;28;20167;-83
2022/03/01 07:40:41;;;;;;;18.77;11.05;;;2.90;99.90;;;;;;5087410;28;20457;-85
2022/03/01 07:43:07;;;;;;;18.77;10.70;;;2.90;99.90;;;;;;5066607;28;20488;-83
2022/03/01 07:45:34;;;;;;;20.48;11.40;;;4.90;99.90;;;;;;5072769;28;20047;-83
2022/03/01 07:48:01;;;;;;;20.05;11.13;;;3.00;99.90;;;;;;5077470;28;20054;-82
2022/03/01 07:50:28;;;;;;;18.20;10.98;;;3.10;99.90;;;;;;5072796;28;20065;-83
2022/03/01 07:52:54;;;;;;;17.23;10.70;;;4.30;99.90;;;;;;5088351;28;20040;-85
2022/03/01 07:55:20;;;;;;;18.48;10.73;;;4.50;99.90;;;;;;5085090;28;20101;-84
2022/03/01 07:57:46;;;;;;;18.90;11.18;;;2.30;99.90;;;;;;5082280;28;20044;-83
2022/03/01 08:00:13;;;;;;;19.50;11.13;;;3.30;99.90;;;;;;5070098;28;20135;-84
2022/03/01 08:02:40;;;;;;;19.25;11.60;;;3.30;99.90;;;;;;5077522;28;20024;-83
2022/03/01 08:05:07;;;;;;;19.45;11.57;;;3.40;99.90;;;;;;5088425;28;20036;-85
2022/03/01 08:07:33;;;;;;;20.70;11.27;;;3.40;99.90;;;;;;5070775;28;20075;-83
2022/03/01 08:10:00;;;;;;;20.42;10.98;;;3.50;99.90;;;;;;5066005;28;20071;-84
2022/03/01 08:12:25;;;;;;;20.48;11.25;;;5.40;99.90;;;;;;5083660;28;20063;-83
2022/03/01 08:14:51;;;;;;;20.90;11.30;;;4.90;99.90;;;;;;5049177;28;20084;-84
2022/03/01 08:17:19;;;;;;;18.58;10.95;;;3.60;99.90;;;;;;5066692;28;20048;-84
2022/03/01 08:19:49;;;;;;;21.75;11.98;;;5.30;99.90;;;;;;5071799;28;20526;-84
2022/03/01 08:22:15;;;;;;;18.95;11.48;;;3.60;99.90;;;;;;5069124;28;20501;-84
2022/03/01 08:24:41;;;;;;;19.00;11.30;;;5.00;99.90;;;;;;5069508;28;20044;-83
2022/03/01 08:27:07;;;;;;;23.70;11.45;;;5.50;99.90;;;;;;5079435;28;20088;-86
2022/03/01 08:29:33;;;;;;;20.15;11.60;;;3.70;99.90;;;;;;5085270;28;20048;-85
2022/03/01 08:31:59;;;;;;;19.38;10.35;;;4.00;99.90;;;;;;5077824;28;20036;-83
2022/03/01 08:34:25;;;;;;;18.65;11.30;;;3.80;99.90;;;;;;5084653;28;20051;-83
2022/03/01 08:36:51;;;;;;;22.55;11.43;;;3.80;99.90;;;;;;5097191;28;20063;-82
2022/03/01 08:39:17;;;;;;;20.95;11.93;;;3.90;99.90;;;;;;5062962;28;20067;-84
2022/03/01 08:41:43;;;;;;;19.52;11.32;;;3.90;99.90;;;;;;5065518;28;20094;-84
2022/03/01 08:44:08;;;;;;;21.60;12.07;;;4.00;99.90;;;;;;5077917;28;20538;-85
2022/03/01 08:46:34;;;;;;;19.83;11.85;;;4.50;99.90;;;;;;5066543;28;20035;-83
2022/03/01 08:49:00;;;;;;;18.58;10.73;;;4.10;99.90;;;;;;5078412;28;20040;-82
2022/03/01 08:51:26;;;;;;;19.65;11.48;;;5.70;99.90;;;;;;5065665;28;20040;-84
2022/03/01 08:53:53;;;;;;;19.38;11.73;;;5.90;99.90;;;;;;5082798;28;20035;-82
2022/03/01 08:56:19;;;;;;;16.90;10.52;;;4.40;99.90;;;;;;5078517;28;20040;-85
2022/03/01 08:58:47;;;;;;;20.60;11.95;;;4.50;99.90;;;;;;5083211;28;20461;-84
2022/03/01 09:01:13;;;;;;;17.60;11.07;;;5.80;99.90;;;;;;5084371;28;20028;-84
2022/03/01 09:03:39;;;;;;;19.25;11.23;;;5.90;99.90;;;;;;5070597;28;20058;-83
2022/03/01 09:06:05;;;;;;;20.13;11.45;;;5.30;99.90;;;;;;5088140;28;20530;-83
2022/03/01 09:08:40;;;;;;;18.40;10.75;;;4.90;99.90;;;;;;5080759;28;20045;-82
2022/03/01 09:11:07;;;;;;;19.50;11.55;;;5.00;99.90;;;;;;5081164;28;20040;-84
2022/03/01 09:13:33;;;;;;;17.52;10.60;;;5.10;99.90;;;;;;5083452;28;20047;-83
2022/03/01 09:15:59;;;;;;;21.10;11.25;;;6.70;99.90;;;;;;5061202;28;20050;-84
2022/03/01 09:18:25;;;;;;;20.98;11.18;;;6.20;99.90;;;;;;5066491;28;20042;-85
2022/03/01 09:20:51;;;;;;;19.85;10.65;;;5.40;99.90;;;;;;5029128;28;20056;-84
2022/03/01 09:23:17;;;;;;;20.42;11.10;;;6.60;99.90;;;;;;5079919;28;20119;-83
2022/03/01 09:25:43;;;;;;;20.20;11.57;;;5.70;99.90;;;;;;5077329;28;20428;-84
2022/03/01 09:28:09;;;;;;;19.85;11.23;;;6.50;99.90;;;;;;5080962;28;20044;-83
2022/03/01 09:30:35;;;;;;;19.45;11.27;;;5.90;99.90;;;;;;5067306;28;20036;-82
2022/03/01 09:33:00;;;;;;;21.48;11.80;;;6.50;99.90;;;;;;5072799;28;20043;-84
2022/03/01 09:35:26;;;;;;;17.88;10.25;;;6.10;99.90;;;;;;5077429;28;20427;-84
2022/03/01 09:37:52;;;;;;;18.98;10.70;;;7.00;99.90;;;;;;5063461;28;20043;-84
2022/03/01 09:40:18;;;;;;;17.48;10.13;;;6.90;99.90;;;;;;5077833;28;20066;-82
2022/03/01 09:42:44;;;;;;;17.38;10.13;;;6.20;99.90;;;;;;5058875;28;20040;-84
2022/03/01 09:45:12;;;;;;;18.50;10.98;;;6.20;99.90;;;;;;5082933;28;20067;-84
2022/03/01 09:47:38;;;;;;;17.70;10.15;;;7.20;99.90;;;;;;5083835;28;20047;-84
2022/03/01 09:50:05;;;;;;;19.02;10.13;;;6.60;99.90;;;;;;5065711;28;20036;-85
2022/03/01 09:52:31;;;;;;;17.50;10.50;;;6.20;99.90;;;;;;5075296;28;20044;-83
2022/03/01 09:54:57;;;;;;;18.05;11.05;;;7.20;99.90;;;;;;5080214;28;20029;-83
2022/03/01 09:57:23;;;;;;;18.75;10.18;;;6.30;99.90;;;;;;5060587;28;20032;-85
2022/03/01 09:59:48;;;;;;;20.48;10.30;;;7.10;99.90;;;;;;5063574;28;20100;-84
2022/03/01 10:02:15;;;;;;;17.55;10.43;;;6.20;99.90;;;;;;5067540;28;20036;-82
2022/03/01 10:04:56;;;;;;;18.13;10.35;;;6.30;99.90;;;;;;5041477;28;20048;-85
2022/03/01 10:07:29;;;;;;;18.55;10.68;;;6.30;99.90;;;;;;5077474;28;20058;-84
2022/03/01 10:10:16;;;;;;;17.25;10.07;;;6.40;99.90;;;;;;5074451;28;20043;-83
2022/03/01 10:12:54;;;;;;;18.83;10.60;;;6.40;99.90;;;;;;5077665;28;20044;-83
2022/03/01 10:15:29;;;;;;;16.73;10.43;;;7.40;99.90;;;;;;5072030;28;20044;-84
2022/03/01 10:17:55;;;;;;;18.00;10.80;;;6.60;99.90;;;;;;5065458;28;20108;-83
2022/03/01 10:20:21;;;;;;;18.80;10.30;;;8.00;99.90;;;;;;5080889;28;20042;-83
2022/03/01 10:22:50;;;;;;;18.45;11.02;;;7.50;99.90;;;;;;5073835;28;20043;-83
2022/03/01 10:25:18;;;;;;;18.85;10.20;;;7.50;99.90;;;;;;5075392;28;20115;-84
2022/03/01 10:27:48;;;;;;;18.08;10.57;;;6.70;99.90;;;;;;5062200;28;20489;-84
2022/03/01 10:30:36;;;;;;;16.70;9.70;;;6.80;99.90;;;;;;5082081;28;20040;-84
2022/03/01 10:33:05;;;;;;;17.65;9.77;;;7.00;99.90;;;;;;5076545;28;20050;-84
2022/03/01 10:35:31;;;;;;;17.98;10.32;;;7.10;99.90;;;;;;5058370;28;20043;-85
2022/03/01 10:38:00;;;;;;;17.08;10.75;;;8.30;99.90;;;;;;5032744;28;20032;-84
2022/03/01 10:40:27;;;;;;;16.80;9.73;;;7.40;99.90;;;;;;5061888;28;20036;-85
2022/03/01 10:43:11;;;;;;;17.70;10.07;;;7.60;99.90;;;;;;5084071;28;20027;-84
2022/03/01 10:45:42;;;;;;;18.05;10.10;;;7.60;99.90;;;;;;5076779;28;20037;-86
2022/03/01 10:48:11;;;;;;;18.00;10.15;;;7.70;99.90;;;;;;5079082;28;20037;-85
2022/03/01 10:50:37;;;;;;;17.48;9.88;;;7.80;99.90;;;;;;5074582;28;20056;-84
2022/03/01 10:53:05;;;;;;;17.60;9.85;;;9.20;99.90;;;;;;5074534;28;20059;-83
2022/03/01 10:55:33;;;;;;;19.38;10.68;;;7.90;99.90;;;;;;5059576;28;20047;-85
2022/03/01 10:58:04;;;;;;;19.33;10.23;;;8.00;99.90;;;;;;5084735;28;20090;-86
2022/03/01 11:00:32;;;;;;;15.95;10.32;;;8.10;99.90;;;;;;5076295;28;20036;-84
2022/03/01 11:02:58;;;;;;;17.98;10.45;;;8.20;99.90;;;;;;5082277;28;20035;-85
2022/03/01 11:05:28;;;;;;;16.67;10.07;;;8.40;99.90;;;;;;5076250;28;20043;-85
2022/03/01 11:07:54;;;;;;;17.17;10.23;;;8.40;99.90;;;;;;5083949;28;20600;-85
2022/03/01 11:10:22;;;;;;;19.52;10.60;;;8.50;99.90;;;;;;5075211;28;20115;-85
2022/03/01 11:12:52;;;;;;;16.92;10.00;;;8.50;99.90;;;;;;5081863;28;20047;-85
2022/03/01 11:15:30;;;;;;;17.38;10.00;;;9.50;99.90;;;;;;5076236;28;20783;-84
2022/03/01 11:18:07;;;;;;;16.05;10.10;;;8.50;99.90;;;;;;5076250;28;20097;-84
2022/03/01 11:20:36;;;;;;;16.98;10.10;;;8.50;99.90;;;;;;5074713;28;20096;-84
2022/03/01 11:23:09;;;;;;;17.00;9.90;;;9.30;99.90;;;;;;5079723;28;20515;-84
2022/03/01 11:25:38;;;;;;;19.45;10.90;;;8.70;99.90;;;;;;5076544;28;20073;-85
2022/03/01 11:28:07;;;;;;;17.30;10.27;;;8.50;99.90;;;;;;5076398;28;20400;-84
2022/03/01 11:30:35;;;;;;;20.48;10.60;;;9.50;99.90;;;;;;5076429;28;20048;-84
2022/03/01 11:33:01;;;;;;;18.92;10.57;;;8.50;99.90;;;;;;5077829;28;20396;-84
2022/03/01 11:35:29;;;;;;;21.02;10.98;;;8.40;99.90;;;;;;5057634;28;20040;-84
2022/03/01 11:38:13;;;;;;;18.52;10.55;;;8.90;99.90;;;;;;5079305;28;20056;-85
2022/03/01 11:40:46;;;;;;;;;;;9.30;99.90;;;;;;5079165;28;20071;-84
2022/03/01 11:43:14;;;;;;;18.05;10.13;;;8.50;99.90;;;;;;5077663;28;19920;-85
2022/03/01 11:46:08;;;;;;;17.02;10.30;;;8.40;99.90;;;;;;5078374;28;20093;-84
2022/03/01 11:48:51;;;;;;;17.23;10.10;;;8.50;99.90;;;;;;5077050;28;20040;-83
2022/03/01 11:51:18;;;;;;;17.25;10.40;;;8.50;99.90;;;;;;5059974;28;20584;-86
2022/03/01 11:53:49;;;;;;;19.52;11.10;;;9.50;99.90;;;;;;5078304;28;20409;-85
2022/03/01 11:56:18;;;;;;;17.70;10.13;;;8.60;99.90;;;;;;5091175;28;20090;-84
2022/03/01 11:58:49;;;;;;;18.42;10.43;;;9.20;99.90;;;;;;5080635;28;20039;-86
2022/03/01 12:01:19;;;;;;;18.83;10.95;;;8.60;99.90;;;;;;5076187;28;20036;-86
2022/03/01 12:03:49;;;;;;;17.35;10.50;;;9.10;99.90;;;;;;5077460;28;20039;-86
2022/03/01 12:06:20;;;;;;;17.17;10.70;;;8.60;99.90;;;;;;5073839;28;20513;-84
2022/03/01 12:08:55;;;;;;;18.13;10.70;;;8.60;99.90;;;;;;5068628;28;20047;-84
2022/03/01 12:11:32;;;;;;;19.23;10.93;;;8.50;99.90;;;;;;5079610;28;20404;-85
2022/03/01 12:14:03;;;;;;;19.10;11.15;;;8.50;99.90;;;;;;5076912;28;20036;-85
2022/03/01 12:16:29;;;;;;;20.00;11.88;;;8.50;99.90;;;;;;5079868;28;20054;-85
2022/03/01 12:19:28;;;;;;;17.33;10.85;;;9.30;99.90;;;;;;5066237;28;20511;-84
2022/03/01 12:21:58;;;;;;;19.05;10.90;;;9.30;99.90;;;;;;5060944;28;20040;-86
2022/03/01 12:24:26;;;;;;;17.83;10.05;;;8.40;99.90;;;;;;5072261;28;20492;-86
2022/03/01 12:26:57;;;;;;;18.23;10.85;;;8.40;99.90;;;;;;5083469;28;20032;-85
2022/03/01 12:29:25;;;;;;;17.10;10.40;;;9.60;99.90;;;;;;5072723;28;20068;-85
2022/03/01 12:32:05;;;;;;;17.77;10.52;;;8.30;99.90;;;;;;5085910;28;20036;-84
2022/03/01 12:34:34;;;;;;;21.33;11.38;;;8.30;99.90;;;;;;5080849;28;20032;-84
2022/03/01 12:37:03;;;;;;;19.13;10.48;;;8.30;99.90;;;;;;5079154;28;20032;-85
2022/03/01 12:39:30;;;;;;;18.17;10.70;;;8.30;99.90;;;;;;5073426;28;20032;-84
2022/03/01 12:41:57;;;;;;;18.50;10.98;;;8.90;99.90;;;;;;5063071;28;20122;-86